createdAt,value
2018-11-11T00:00:01.317Z,7.27
2018-11-11T00:02:29.612Z,6.70
2018-11-11T00:04:57.923Z,7.80
2018-11-11T00:07:26.217Z,6.03
2018-11-11T00:09:54.551Z,7.07
2018-11-11T00:12:22.904Z,7.40
2018-11-11T00:14:51.246Z,7.77
2018-11-11T00:17:19.683Z,8.20
2018-11-11T00:19:48.000Z,6.57
2018-11-11T00:22:16.289Z,7.53
2018-11-11T00:24:44.584Z,6.90
2018-11-11T00:27:12.931Z,7.03
2018-11-11T00:29:41.235Z,7.00
2018-11-11T00:32:09.878Z,6.03
2018-11-11T00:34:38.220Z,6.27
2018-11-11T00:37:06.707Z,5.50
2018-11-11T00:39:35.019Z,6.33
2018-11-11T00:42:03.279Z,5.03
2018-11-11T00:44:31.590Z,5.73
2018-11-11T00:46:59.879Z,5.17
2018-11-11T00:49:28.175Z,5.03
2018-11-11T00:51:56.517Z,5.43
2018-11-11T00:54:24.823Z,4.80
2018-11-11T00:56:53.110Z,4.93
2018-11-11T00:59:21.434Z,4.77
2018-11-11T01:01:49.815Z,5.50
2018-11-11T01:04:18.386Z,5.00
2018-11-11T01:06:46.754Z,5.73
2018-11-11T01:09:15.039Z,5.07
2018-11-11T01:11:43.364Z,5.20
2018-11-11T01:14:11.659Z,7.73
2018-11-11T01:16:39.984Z,6.50
2018-11-11T01:19:08.731Z,6.43
2018-11-11T01:21:37.049Z,6.23
2018-11-11T01:24:05.381Z,6.87
2018-11-11T01:26:33.935Z,7.73
2018-11-11T01:29:02.224Z,6.70
2018-11-11T01:31:30.536Z,7.00
2018-11-11T01:33:58.863Z,5.17
2018-11-11T01:36:27.176Z,5.70
2018-11-11T01:38:55.459Z,6.07
2018-11-11T01:41:23.767Z,7.07
2018-11-11T01:43:52.071Z,6.03
2018-11-11T01:46:20.469Z,9.13
2018-11-11T01:48:48.765Z,6.57
2018-11-11T01:51:17.128Z,7.17
2018-11-11T01:53:45.523Z,7.07
2018-11-11T01:56:13.836Z,6.73
2018-11-11T01:58:42.122Z,6.33
2018-11-11T02:01:10.463Z,6.50
2018-11-11T02:03:38.775Z,6.97
2018-11-11T02:06:07.123Z,5.87
2018-11-11T02:08:35.410Z,7.20
2018-11-11T02:11:03.802Z,6.47
2018-11-11T02:13:32.145Z,6.53
2018-11-11T02:16:00.475Z,5.70
2018-11-11T02:18:28.770Z,5.87
2018-11-11T02:20:57.062Z,6.87
2018-11-11T02:23:25.330Z,5.23
2018-11-11T02:25:53.636Z,5.30
2018-11-11T02:28:21.928Z,5.57
2018-11-11T02:30:50.246Z,5.17
2018-11-11T02:33:18.526Z,5.03
2018-11-11T02:35:46.824Z,5.10
2018-11-11T02:38:15.115Z,7.93
2018-11-11T02:40:43.472Z,5.40
2018-11-11T02:43:11.813Z,6.63
2018-11-11T02:45:40.171Z,5.90
2018-11-11T02:48:08.495Z,5.60
2018-11-11T02:50:36.835Z,5.37
2018-11-11T02:53:05.145Z,4.57
2018-11-11T02:55:33.437Z,5.13
2018-11-11T02:58:01.754Z,4.70
2018-11-11T03:00:30.079Z,4.57
2018-11-11T03:02:58.403Z,5.67
2018-11-11T03:05:26.721Z,4.23
2018-11-11T03:07:55.043Z,4.20
2018-11-11T03:10:23.359Z,4.20
2018-11-11T03:12:51.798Z,5.50
2018-11-11T03:15:20.473Z,4.43
2018-11-11T03:17:48.869Z,4.53
2018-11-11T03:20:17.661Z,5.13
2018-11-11T03:22:45.970Z,4.90
2018-11-11T03:25:15.390Z,4.30
2018-11-11T03:27:43.933Z,3.80
2018-11-11T03:30:13.725Z,5.17
2018-11-11T03:32:42.154Z,3.27
2018-11-11T03:35:11.549Z,3.00
2018-11-11T03:37:40.367Z,3.13
2018-11-11T03:40:11.905Z,3.30
2018-11-11T03:42:40.278Z,3.60
2018-11-11T03:45:10.335Z,3.10
2018-11-11T03:47:38.772Z,3.73
2018-11-11T03:50:08.218Z,3.77
2018-11-11T03:52:36.664Z,4.87
2018-11-11T03:55:05.731Z,3.40
2018-11-11T03:57:34.163Z,3.40
2018-11-11T04:00:02.839Z,2.43
2018-11-11T04:02:31.329Z,3.20
2018-11-11T04:04:59.679Z,3.10
2018-11-11T04:07:28.039Z,3.07
2018-11-11T04:09:56.356Z,3.37
2018-11-11T04:12:24.644Z,2.77
2018-11-11T04:14:52.959Z,5.03
2018-11-11T04:17:21.307Z,2.83
2018-11-11T04:19:49.973Z,2.97
2018-11-11T04:22:19.276Z,2.40
2018-11-11T04:24:49.291Z,2.47
2018-11-11T04:27:17.781Z,3.60
2018-11-11T04:29:46.205Z,3.13
2018-11-11T04:32:14.568Z,2.97
2018-11-11T04:34:43.495Z,3.10
2018-11-11T04:37:11.812Z,3.20
2018-11-11T04:39:40.780Z,2.60
2018-11-11T04:42:09.187Z,2.50
2018-11-11T04:44:37.487Z,2.77
2018-11-11T04:47:05.824Z,2.90
2018-11-11T04:49:34.161Z,2.67
2018-11-11T04:52:02.509Z,2.60
2018-11-11T04:54:30.908Z,2.60
2018-11-11T04:56:59.231Z,3.03
2018-11-11T04:59:27.512Z,3.40
2018-11-11T05:01:55.839Z,3.30
2018-11-11T05:04:24.186Z,4.50
2018-11-11T05:06:52.477Z,3.00
2018-11-11T05:09:20.803Z,5.40
2018-11-11T05:11:49.109Z,4.30
2018-11-11T05:14:17.453Z,3.20
2018-11-11T05:16:45.761Z,3.33
2018-11-11T05:19:14.063Z,4.00
2018-11-11T05:21:42.375Z,4.03
2018-11-11T05:24:10.718Z,3.50
2018-11-11T05:26:39.039Z,5.10
2018-11-11T05:29:07.358Z,3.40
2018-11-11T05:31:35.743Z,3.33
2018-11-11T05:34:04.249Z,3.13
2018-11-11T05:36:32.574Z,3.53
2018-11-11T05:39:01.015Z,4.03
2018-11-11T05:41:29.367Z,3.50
2018-11-11T05:43:57.686Z,4.17
2018-11-11T05:46:25.991Z,3.00
2018-11-11T05:48:54.310Z,3.90
2018-11-11T05:51:22.629Z,2.50
2018-11-11T05:53:50.948Z,2.53
2018-11-11T05:56:19.266Z,3.53
2018-11-11T05:58:47.597Z,3.00
2018-11-11T06:01:15.930Z,2.83
2018-11-11T06:03:44.251Z,2.83
2018-11-11T06:06:12.553Z,2.70
2018-11-11T06:08:40.926Z,2.57
2018-11-11T06:11:09.234Z,3.17
2018-11-11T06:13:37.568Z,2.70
2018-11-11T06:16:06.248Z,3.60
2018-11-11T06:18:34.614Z,1.83
2018-11-11T06:21:02.907Z,4.43
2018-11-11T06:23:31.243Z,2.47
2018-11-11T06:27:30.830Z,1.70
2018-11-11T06:29:59.140Z,2.70
2018-11-11T06:32:27.575Z,2.00
2018-11-11T06:34:55.975Z,2.17
2018-11-11T06:37:24.275Z,3.27
2018-11-11T06:39:52.599Z,3.40
2018-11-11T06:42:20.997Z,2.43
2018-11-11T06:44:49.359Z,2.40
2018-11-11T06:47:17.671Z,1.80
2018-11-11T06:49:45.985Z,3.17
2018-11-11T06:52:14.299Z,1.97
2018-11-11T06:54:42.841Z,3.43
2018-11-11T06:57:11.236Z,2.20
2018-11-11T06:59:39.568Z,2.30
2018-11-11T07:02:07.888Z,3.60
2018-11-11T07:04:36.223Z,2.80
2018-11-11T07:07:04.566Z,2.70
2018-11-11T07:09:32.895Z,2.97
2018-11-11T07:12:01.179Z,2.20
2018-11-11T07:14:29.519Z,3.67
2018-11-11T07:16:57.864Z,3.30
2018-11-11T07:19:26.187Z,2.33
2018-11-11T07:21:54.668Z,3.90
2018-11-11T07:24:23.028Z,3.07
2018-11-11T07:26:51.415Z,4.30
2018-11-11T07:29:19.778Z,4.47
2018-11-11T07:31:48.107Z,3.90
2018-11-11T07:34:16.496Z,2.73
2018-11-11T07:36:44.820Z,2.97
2018-11-11T07:39:14.143Z,4.03
2018-11-11T07:41:42.455Z,3.77
2018-11-11T07:44:10.775Z,3.17
2018-11-11T07:46:39.191Z,3.10
2018-11-11T07:49:07.535Z,2.43
2018-11-11T07:51:36.172Z,2.63
2018-11-11T07:54:04.588Z,3.30
2018-11-11T07:56:32.903Z,3.80
2018-11-11T07:59:01.262Z,2.03
2018-11-11T08:01:30.105Z,3.53
2018-11-11T08:03:58.294Z,3.67
2018-11-11T08:06:26.454Z,4.73
2018-11-11T08:08:55.431Z,3.40
2018-11-11T08:11:35.174Z,3.40
2018-11-11T08:14:03.311Z,3.83
2018-11-11T08:16:31.538Z,5.73
2018-11-11T08:18:59.678Z,4.67
2018-11-11T08:21:27.879Z,5.83
2018-11-11T08:23:56.057Z,4.17
2018-11-11T08:26:24.278Z,4.77
2018-11-11T08:28:52.438Z,4.00
2018-11-11T08:31:20.639Z,6.27
2018-11-11T08:33:49.220Z,5.00
2018-11-11T08:36:17.365Z,5.87
2018-11-11T08:38:45.507Z,4.07
2018-11-11T08:41:13.664Z,3.00
2018-11-11T08:43:41.814Z,6.57
2018-11-11T08:46:09.972Z,3.77
2018-11-11T08:48:38.107Z,6.57
2018-11-11T08:51:06.514Z,5.27
2018-11-11T08:53:34.720Z,5.73
2018-11-11T08:56:03.121Z,6.87
2018-11-11T08:58:31.607Z,4.67
2018-11-11T09:00:59.938Z,5.93
2018-11-11T09:03:28.281Z,5.50
2018-11-11T09:05:56.725Z,4.73
2018-11-11T09:08:25.053Z,5.50
2018-11-11T09:10:53.370Z,7.17
2018-11-11T09:13:21.709Z,6.17
2018-11-11T09:15:50.033Z,4.87
2018-11-11T09:18:18.371Z,5.43
2018-11-11T09:20:46.846Z,5.00
2018-11-11T09:23:15.187Z,3.87
2018-11-11T09:25:43.633Z,4.63
2018-11-11T09:28:12.091Z,4.03
2018-11-11T09:30:40.594Z,4.93
2018-11-11T09:33:08.971Z,4.87
2018-11-11T09:35:37.367Z,4.20
2018-11-11T09:38:05.744Z,4.10
2018-11-11T09:40:34.109Z,3.67
2018-11-11T09:43:02.439Z,3.87
2018-11-11T09:45:30.763Z,3.30
2018-11-11T09:47:59.315Z,2.70
2018-11-11T09:50:27.584Z,3.40
2018-11-11T09:52:55.923Z,2.43
2018-11-11T09:55:24.238Z,3.83
2018-11-11T09:57:52.559Z,2.50
2018-11-11T10:00:22.064Z,2.93
2018-11-11T10:02:53.213Z,3.20
2018-11-11T10:05:32.758Z,2.80
2018-11-11T10:08:07.984Z,2.57
2018-11-11T10:10:44.503Z,2.43
2018-11-11T10:13:49.794Z,3.60
2018-11-11T10:16:22.283Z,2.23
2018-11-11T10:18:55.100Z,3.20
2018-11-11T10:21:28.038Z,2.60
2018-11-11T10:25:02.254Z,1.93
2018-11-11T10:27:37.299Z,2.57
2018-11-11T10:30:10.607Z,3.87
2018-11-11T10:33:25.465Z,2.60
2018-11-11T10:35:59.323Z,1.97
2018-11-11T10:38:33.998Z,2.10
2018-11-11T10:41:08.042Z,3.07
2018-11-11T10:43:40.222Z,2.00
2018-11-11T10:46:13.454Z,3.00
2018-11-11T10:48:45.868Z,3.20
2018-11-11T10:51:15.050Z,1.40
2018-11-11T10:53:43.442Z,4.27
2018-11-11T10:56:11.693Z,1.80
2018-11-11T10:58:39.859Z,1.30
2018-11-11T11:01:13.138Z,1.20
2018-11-11T11:03:41.298Z,1.07
2018-11-11T11:06:09.560Z,3.10
2018-11-11T11:08:42.195Z,1.60
2018-11-11T11:11:19.278Z,2.83
2018-11-11T11:13:47.450Z,2.13
2018-11-11T11:16:15.602Z,3.67
2018-11-11T11:18:43.771Z,3.67
2018-11-11T11:21:11.935Z,0.93
2018-11-11T11:23:40.434Z,2.10
2018-11-11T11:26:09.220Z,1.73
2018-11-11T11:28:37.694Z,1.50
2018-11-11T11:31:05.836Z,1.27
2018-11-11T11:33:34.279Z,1.30
2018-11-11T11:36:02.436Z,1.57
2018-11-11T11:38:30.579Z,3.53
2018-11-11T11:40:59.022Z,1.80
2018-11-11T11:43:27.203Z,1.00
2018-11-11T11:45:55.773Z,1.57
2018-11-11T11:48:24.241Z,2.00
2018-11-11T11:50:52.671Z,1.47
2018-11-11T11:53:21.166Z,1.70
2018-11-11T11:55:49.784Z,2.37
2018-11-11T11:58:20.487Z,1.83
2018-11-11T12:00:48.974Z,2.37
2018-11-11T12:03:17.144Z,2.23
2018-11-11T12:05:46.093Z,3.03
2018-11-11T12:08:14.534Z,1.63
2018-11-11T12:10:42.763Z,1.50
2018-11-11T12:13:12.242Z,2.33
2018-11-11T12:15:41.959Z,3.23
2018-11-11T12:18:10.467Z,2.57
2018-11-11T12:20:39.021Z,2.33
2018-11-11T12:23:07.786Z,3.37
2018-11-11T12:25:36.806Z,1.60
2018-11-11T12:28:05.412Z,1.57
2018-11-11T12:30:33.752Z,2.63
2018-11-11T12:33:01.939Z,1.53
2018-11-11T12:35:30.310Z,1.77
2018-11-11T12:37:58.495Z,2.63
2018-11-11T12:40:26.683Z,1.87
2018-11-11T12:42:54.832Z,2.57
2018-11-11T12:45:23.003Z,1.30
2018-11-11T12:47:51.174Z,2.27
2018-11-11T12:50:19.760Z,1.60
2018-11-11T12:52:47.858Z,1.23
2018-11-11T12:55:16.063Z,1.73
2018-11-11T12:57:44.420Z,1.63
2018-11-11T13:00:14.074Z,1.30
2018-11-11T13:02:42.503Z,1.53
2018-11-11T13:05:11.465Z,1.60
2018-11-11T13:07:39.653Z,1.03
2018-11-11T13:10:10.023Z,1.20
2018-11-11T13:12:38.407Z,1.33
2018-11-11T13:15:07.691Z,2.73
2018-11-11T13:17:36.422Z,2.83
2018-11-11T13:20:06.205Z,2.83
2018-11-11T13:22:34.411Z,1.87
2018-11-11T13:25:03.348Z,1.53
2018-11-11T13:27:32.014Z,4.40
2018-11-11T13:30:00.159Z,1.73
2018-11-11T13:32:28.579Z,2.13
2018-11-11T13:34:56.936Z,2.53
2018-11-11T13:37:25.593Z,2.00
2018-11-11T13:39:53.772Z,2.87
2018-11-11T13:42:21.965Z,1.33
2018-11-11T13:44:50.089Z,1.13
2018-11-11T13:47:18.255Z,1.53
2018-11-11T13:49:46.415Z,2.77
2018-11-11T13:52:14.653Z,1.20
2018-11-11T13:54:42.801Z,3.80
2018-11-11T13:57:10.973Z,2.10
2018-11-11T13:59:39.391Z,2.13
2018-11-11T14:02:08.029Z,2.60
2018-11-11T14:04:36.180Z,1.50
2018-11-11T14:07:04.617Z,5.13
2018-11-11T14:09:33.026Z,2.67
2018-11-11T14:12:01.214Z,1.43
2018-11-11T14:14:29.725Z,2.63
2018-11-11T14:16:57.906Z,2.73
2018-11-11T14:19:26.079Z,2.97
2018-11-11T14:21:54.841Z,2.53
2018-11-11T14:24:23.168Z,3.83
2018-11-11T14:26:51.599Z,3.97
2018-11-11T14:29:19.890Z,2.80
2018-11-11T14:31:48.250Z,3.37
2018-11-11T14:34:16.606Z,2.27
2018-11-11T14:36:44.943Z,2.50
2018-11-11T14:39:14.361Z,2.50
2018-11-11T14:41:43.017Z,4.80
2018-11-11T14:44:11.422Z,2.80
2018-11-11T14:46:40.409Z,3.43
2018-11-11T14:49:09.642Z,2.50
2018-11-11T14:51:37.928Z,3.83
2018-11-11T14:54:06.348Z,2.57
2018-11-11T14:56:34.814Z,3.50
2018-11-11T14:59:03.214Z,2.70
2018-11-11T15:01:31.602Z,5.00
2018-11-11T15:03:59.937Z,2.90
2018-11-11T15:06:28.337Z,5.43
2018-11-11T15:08:56.750Z,2.30
2018-11-11T15:11:25.097Z,3.40
2018-11-11T15:13:53.532Z,3.97
2018-11-11T15:16:21.878Z,3.47
2018-11-11T15:18:50.262Z,3.63
2018-11-11T15:21:18.571Z,2.93
2018-11-11T15:23:46.957Z,3.90
2018-11-11T15:26:15.294Z,2.53
2018-11-11T15:28:43.610Z,3.67
2018-11-11T15:31:12.002Z,3.93
2018-11-11T15:33:40.391Z,4.07
2018-11-11T15:36:08.679Z,5.10
2018-11-11T15:38:36.989Z,3.17
2018-11-11T15:41:05.379Z,4.57
2018-11-11T15:43:33.694Z,5.93
2018-11-11T15:46:02.047Z,4.90
2018-11-11T15:48:30.355Z,4.50
2018-11-11T15:50:58.737Z,3.70
2018-11-11T15:53:27.023Z,3.47
2018-11-11T15:55:55.343Z,4.60
2018-11-11T15:58:23.661Z,4.13
2018-11-11T16:00:52.074Z,4.30
2018-11-11T16:03:20.411Z,2.77
2018-11-11T16:05:48.807Z,4.70
2018-11-11T16:08:17.108Z,3.23
2018-11-11T16:10:45.474Z,2.40
2018-11-11T16:13:13.853Z,4.27
2018-11-11T16:15:42.638Z,2.77
2018-11-11T16:18:12.197Z,2.43
2018-11-11T16:20:40.650Z,5.30
2018-11-11T16:23:09.869Z,3.77
2018-11-11T16:25:38.249Z,3.43
2018-11-11T16:28:06.590Z,6.00
2018-11-11T16:30:36.130Z,4.43
2018-11-11T16:33:04.659Z,4.73
2018-11-11T16:35:33.307Z,8.23
2018-11-11T16:38:02.181Z,3.70
2018-11-11T16:40:31.934Z,5.03
2018-11-11T16:43:00.567Z,3.40
2018-11-11T16:45:30.687Z,5.50
2018-11-11T16:47:59.127Z,3.03
2018-11-11T16:50:30.166Z,4.77
2018-11-11T16:53:01.029Z,3.00
2018-11-11T16:55:30.397Z,4.43
2018-11-11T16:57:58.589Z,5.27
2018-11-11T17:00:29.140Z,3.87
2018-11-11T17:02:58.352Z,4.60
2018-11-11T17:05:28.051Z,3.07
2018-11-11T17:07:56.403Z,3.27
2018-11-11T17:10:26.040Z,4.37
2018-11-11T17:12:55.441Z,4.57
2018-11-11T17:15:25.134Z,3.23
2018-11-11T17:17:53.468Z,3.97
2018-11-11T17:20:22.762Z,3.20
2018-11-11T17:22:52.075Z,3.67
2018-11-11T17:25:21.452Z,6.53
2018-11-11T17:27:49.757Z,3.90
2018-11-11T17:30:20.414Z,2.30
2018-11-11T17:32:49.580Z,2.73
2018-11-11T17:35:18.004Z,3.80
2018-11-11T17:37:46.562Z,2.57
2018-11-11T17:40:18.201Z,3.50
2018-11-11T17:42:47.554Z,1.73
2018-11-11T17:45:16.286Z,3.83
2018-11-11T17:47:45.352Z,2.67
2018-11-11T17:50:17.766Z,5.30
2018-11-11T17:52:46.277Z,3.70
2018-11-11T17:55:15.970Z,3.57
2018-11-11T17:57:44.647Z,8.20
2018-11-11T18:00:14.535Z,4.17
2018-11-11T18:02:43.150Z,5.27
2018-11-11T18:05:12.606Z,3.57
2018-11-11T18:07:40.975Z,5.13
2018-11-11T18:10:11.596Z,2.97
2018-11-11T18:12:39.880Z,3.27
2018-11-11T18:15:09.360Z,6.40
2018-11-11T18:17:37.862Z,4.03
2018-11-11T18:20:08.820Z,3.90
2018-11-11T18:22:37.133Z,4.23
2018-11-11T18:25:05.899Z,4.10
2018-11-11T18:27:34.377Z,4.97
2018-11-11T18:30:02.723Z,3.63
2018-11-11T18:32:31.067Z,4.03
2018-11-11T18:34:59.512Z,2.90
2018-11-11T18:37:27.847Z,3.53
2018-11-11T18:42:31.256Z,2.93
2018-11-11T18:44:59.682Z,3.80
2018-11-11T18:47:28.084Z,2.57
2018-11-11T18:49:56.549Z,3.23
2018-11-11T18:52:25.160Z,2.73
2018-11-11T18:54:53.681Z,3.60
2018-11-11T18:57:22.224Z,4.60
2018-11-11T18:59:50.575Z,3.83
2018-11-11T19:02:19.239Z,4.23
2018-11-11T19:04:47.651Z,3.47
2018-11-11T19:07:15.956Z,4.70
2018-11-11T19:09:44.604Z,3.43
2018-11-11T19:12:12.917Z,3.47
2018-11-11T19:14:41.400Z,2.00
2018-11-11T19:17:09.830Z,2.43
2018-11-11T19:19:42.643Z,5.17
2018-11-11T19:22:17.590Z,2.37
2018-11-11T19:24:45.951Z,3.37
2018-11-11T19:27:14.212Z,2.13
2018-11-11T19:29:42.509Z,2.80
2018-11-11T19:32:10.868Z,3.13
2018-11-11T19:34:39.353Z,2.87
2018-11-11T19:37:07.764Z,3.37
2018-11-11T19:39:36.120Z,2.03
2018-11-11T19:42:04.541Z,3.33
2018-11-11T19:44:32.779Z,3.77
2018-11-11T19:47:01.145Z,4.10
2018-11-11T19:49:29.501Z,1.83
2018-11-11T19:51:57.787Z,2.43
2018-11-11T19:54:26.088Z,2.33
2018-11-11T19:56:55.931Z,2.80
2018-11-11T19:59:25.815Z,2.17
2018-11-11T20:01:56.166Z,2.90
2018-11-11T20:04:25.208Z,2.20
2018-11-11T20:06:53.775Z,2.67
2018-11-11T20:09:22.376Z,2.33
2018-11-11T20:11:50.569Z,3.57
2018-11-11T20:14:18.727Z,3.87
2018-11-11T20:16:46.919Z,4.60
2018-11-11T20:19:15.059Z,3.37
2018-11-11T20:21:43.447Z,1.97
2018-11-11T20:24:11.629Z,4.93
2018-11-11T20:26:40.088Z,5.90
2018-11-11T20:29:08.690Z,4.53
2018-11-11T20:31:37.411Z,5.80
2018-11-11T20:34:06.192Z,6.30
2018-11-11T20:36:34.536Z,4.50
2018-11-11T20:39:03.006Z,6.93
2018-11-11T20:41:31.367Z,4.63
2018-11-11T20:44:00.944Z,5.67
2018-11-11T20:46:29.563Z,3.87
2018-11-11T20:48:57.750Z,5.67
2018-11-11T20:51:25.940Z,4.07
2018-11-11T20:53:54.121Z,5.27
2018-11-11T20:56:22.344Z,7.27
2018-11-11T20:58:50.479Z,4.37
2018-11-11T21:01:18.709Z,5.33
2018-11-11T21:03:46.952Z,4.17
2018-11-11T21:06:15.079Z,4.83
2018-11-11T21:08:43.234Z,4.23
2018-11-11T21:11:11.419Z,4.33
2018-11-11T21:13:39.590Z,4.97
2018-11-11T21:16:08.064Z,4.73
2018-11-11T21:18:36.218Z,3.27
2018-11-11T21:21:04.651Z,5.17
2018-11-11T21:23:33.363Z,5.90
2018-11-11T21:26:02.023Z,3.43
2018-11-11T21:28:30.238Z,2.30
2018-11-11T21:30:58.398Z,5.10
2018-11-11T21:33:26.580Z,4.10
2018-11-11T21:35:54.754Z,2.90
2018-11-11T21:38:22.965Z,3.57
2018-11-11T21:40:51.086Z,2.73
2018-11-11T21:43:20.377Z,3.30
2018-11-11T21:45:48.599Z,3.30
2018-11-11T21:48:16.722Z,3.67
2018-11-11T21:50:44.914Z,2.47
2018-11-11T21:53:29.325Z,4.17
2018-11-11T21:55:57.820Z,2.93
2018-11-11T21:58:32.883Z,2.57
2018-11-11T22:01:01.251Z,2.60
2018-11-11T22:03:29.467Z,3.20
2018-11-11T22:05:57.638Z,1.90
2018-11-11T22:08:25.831Z,1.93
2018-11-11T22:10:54.967Z,2.50
2018-11-11T22:13:23.736Z,3.40
2018-11-11T22:15:52.870Z,1.57
2018-11-11T22:18:20.974Z,2.67
2018-11-11T22:20:49.455Z,2.27
2018-11-11T22:23:17.922Z,2.70
2018-11-11T22:25:46.100Z,1.90
2018-11-11T22:28:14.349Z,1.80
2018-11-11T22:30:42.692Z,2.17
2018-11-11T22:33:11.107Z,3.40
2018-11-11T22:35:39.295Z,1.23
2018-11-11T22:38:07.742Z,3.70
2018-11-11T22:40:35.904Z,1.63
2018-11-11T22:43:04.042Z,0.97
2018-11-11T22:45:32.202Z,1.20
2018-11-11T22:48:00.375Z,1.57
2018-11-11T22:50:28.528Z,3.17
2018-11-11T22:52:56.710Z,3.00
2018-11-11T22:55:24.901Z,1.47
2018-11-11T22:57:53.043Z,1.70
2018-11-11T23:00:26.931Z,2.23
2018-11-11T23:02:55.123Z,3.17
2018-11-11T23:05:23.632Z,1.53
2018-11-11T23:07:51.818Z,2.60
2018-11-11T23:10:20.023Z,1.70
2018-11-11T23:12:48.492Z,2.33
2018-11-11T23:15:18.160Z,3.60
2018-11-11T23:17:46.334Z,1.50
2018-11-11T23:20:16.639Z,2.20
2018-11-11T23:22:45.079Z,1.17
2018-11-11T23:25:14.519Z,2.07
2018-11-11T23:27:42.934Z,1.27
2018-11-11T23:30:14.754Z,2.97
2018-11-11T23:32:43.221Z,1.37
2018-11-11T23:35:11.913Z,1.00
2018-11-11T23:37:40.693Z,1.33
2018-11-11T23:40:10.490Z,1.47
2018-11-11T23:42:39.216Z,1.17
2018-11-11T23:45:07.604Z,5.33
2018-11-11T23:47:35.935Z,1.77
2018-11-11T23:50:04.930Z,0.83
2018-11-11T23:52:33.180Z,1.87
2018-11-11T23:55:01.364Z,1.73
2018-11-11T23:57:29.526Z,1.17
2018-11-11T23:59:57.654Z,2.47
